| time (UTC) | temp F | wind direction | speed knots | gust knots | rain 1hr in | rain 24hr in | rain mn in | humidity % | barometer mb |
| 20260506013600 | 70 | 63 | 0.0 | 0.9 | 0.00 | 0.00 | 0.00 | 58 | 1014.6 |
| 20260506012535 | 70 | 63 | 0.0 | 1.7 | 0.00 | 0.00 | 0.00 | 57 | 1014.6 |
| 20260506011533 | 70 | 63 | 0.0 | 1.7 | 0.00 | 0.00 | 0.00 | 58 | 1014.4 |
| 20260506010557 | 70 | 63 | 0.9 | 1.7 | 0.00 | 0.00 | 0.00 | 55 | 1014.3 |
| 20260506005551 | 71 | 63 | 0.0 | 1.7 | 0.00 | 0.00 | 0.00 | 56 | 1014.4 |
| 20260506004527 | 71 | 31 | 0.9 | 2.6 | 0.00 | 0.00 | 0.00 | 55 | 1014.4 |
| 20260506003526 | 72 | 25 | 0.0 | 0.0 | 0.00 | 0.00 | 0.00 | 53 | 1014.4 |
| 20260506002528 | 72 | 25 | 0.0 | 0.0 | 0.00 | 0.00 | 0.00 | 54 | 1014.4 |
| 20260506001547 | 73 | 25 | 0.0 | 0.0 | 0.00 | 0.00 | 0.00 | 54 | 1014.3 |
| 20260506000605 | 73 | 25 | 0.0 | 0.9 | 0.00 | 0.00 | 0.00 | 53 | 1014.4 |
| 20260505235542 | 73 | 25 | 0.0 | 0.9 | 0.00 | 0.00 | 0.00 | 54 | 1014.5 |
| 20260505234541 | 74 | 25 | 0.0 | 0.0 | 0.00 | 0.00 | 0.00 | 55 | 1014.4 |
| 20260505233539 | 74 | 25 | 0.0 | 1.7 | 0.00 | 0.00 | 0.00 | 52 | 1014.5 |
| 20260505232537 | 75 | 25 | 0.0 | 0.9 | 0.00 | 0.00 | 0.00 | 51 | 1014.4 |
| 20260505231600 | 75 | 23 | 0.0 | 1.7 | 0.00 | 0.00 | 0.00 | 49 | 1014.4 |
| 20260505230559 | 76 | 62 | 0.0 | 1.7 | 0.00 | 0.00 | 0.00 | 48 | 1014.2 |
| 20260505225532 | 76 | 37 | 0.9 | 2.6 | 0.00 | 0.00 | 0.00 | 46 | 1014.3 |
| 20260505224534 | 76 | 210 | 0.9 | 4.3 | 0.00 | 0.00 | 0.00 | 45 | 1014.3 |
| 20260505223533 | 76 | 345 | 0.9 | 3.5 | 0.00 | 0.00 | 0.00 | 48 | 1014.4 |
| 20260505222531 | 76 | 70 | 0.9 | 2.6 | 0.00 | 0.00 | 0.00 | 47 | 1014.4 |
| 20260505221534 | 77 | 52 | 0.9 | 2.6 | 0.00 | 0.00 | 0.00 | 46 | 1014.4 |
| 20260505220613 | 77 | 87 | 1.7 | 3.5 | 0.00 | 0.00 | 0.00 | 43 | 1014.4 |
| 20260505215525 | 77 | 4 | 0.9 | 3.5 | 0.00 | 0.00 | 0.00 | 45 | 1014.1 |
| 20260505214543 | 78 | 30 | 0.9 | 2.6 | 0.00 | 0.00 | 0.00 | 44 | 1014.3 |
| 20260505213526 | 78 | 85 | 1.7 | 5.2 | 0.00 | 0.00 | 0.00 | 43 | 1014.4 |
| 20260505212523 | 79 | 345 | 1.7 | 2.6 | 0.00 | 0.00 | 0.00 | 43 | 1014.3 |
| 20260505211542 | 79 | 337 | 0.9 | 3.5 | 0.00 | 0.00 | 0.00 | 43 | 1014.4 |
| 20260505210621 | 79 | 122 | 1.7 | 4.3 | 0.00 | 0.00 | 0.00 | 44 | 1014.4 |
| 20260505205538 | 78 | 319 | 1.7 | 4.3 | 0.00 | 0.00 | 0.00 | 44 | 1014.4 |
| 20260505204535 | 79 | 311 | 0.9 | 3.5 | 0.00 | 0.00 | 0.00 | 44 | 1014.8 |
| 20260505203556 | 78 | 4 | 1.7 | 8.7 | 0.00 | 0.00 | 0.00 | 43 | 1014.6 |
| 20260505202536 | 78 | 4 | 1.7 | 5.2 | 0.00 | 0.00 | 0.00 | 43 | 1014.9 |
| 20260505201534 | 78 | 347 | 1.7 | 5.2 | 0.00 | 0.00 | 0.00 | 43 | 1014.9 |
| 20260505200554 | 78 | 129 | 0.9 | 5.2 | 0.00 | 0.00 | 0.00 | 44 | 1015.0 |
| 20260505195532 | 78 | 31 | 1.7 | 3.5 | 0.00 | 0.00 | 0.00 | 45 | 1015.2 |
| 20260505194531 | 78 | 354 | 2.6 | 5.2 | 0.00 | 0.00 | 0.00 | 43 | 1015.4 |
| 20260505193529 | 78 | 301 | 1.7 | 5.2 | 0.00 | 0.00 | 0.00 | 45 | 1015.6 |
| 20260505192527 | 77 | 193 | 1.7 | 5.2 | 0.00 | 0.00 | 0.00 | 44 | 1015.6 |
| 20260505191528 | 78 | 332 | 0.9 | 4.3 | 0.00 | 0.00 | 0.00 | 45 | 1015.6 |
| 20260505190548 | 77 | 354 | 2.6 | 5.2 | 0.00 | 0.00 | 0.00 | 46 | 1015.8 |
| 20260505185541 | 78 | 321 | 1.7 | 7.0 | 0.00 | 0.00 | 0.00 | 41 | 1015.8 |
| 20260505184523 | 78 | 287 | 0.9 | 7.0 | 0.00 | 0.00 | 0.00 | 45 | 1015.8 |
| 20260505183543 | 77 | 341 | 2.6 | 5.2 | 0.00 | 0.00 | 0.00 | 45 | 1015.8 |
| 20260505182540 | 77 | 331 | 1.7 | 7.0 | 0.00 | 0.00 | 0.00 | 45 | 1015.9 |
| 20260505181542 | 77 | 84 | 0.9 | 5.2 | 0.00 | 0.00 | 0.00 | 48 | 1016.2 |
| 20260505180602 | 77 | 133 | 1.7 | 4.3 | 0.00 | 0.00 | 0.00 | 46 | 1016.3 |
| 20260505175535 | 76 | 289 | 1.7 | 5.2 | 0.00 | 0.00 | 0.00 | 48 | 1016.5 |
| 20260505174533 | 77 | 39 | 1.7 | 2.6 | 0.00 | 0.00 | 0.00 | 49 | 1016.6 |
| 20260505173536 | 77 | 151 | 2.6 | 7.0 | 0.00 | 0.00 | 0.00 | 48 | 1016.8 |
| 20260505172534 | 76 | 12 | 1.7 | 3.5 | 0.00 | 0.00 | 0.00 | 49 | 1016.9 |
| 20260505171553 | 76 | 354 | 1.7 | 5.2 | 0.00 | 0.00 | 0.00 | 47 | 1017.0 |
| 20260505170556 | 78 | 301 | 2.6 | 7.8 | 0.00 | 0.00 | 0.00 | 45 | 1017.1 |
| 20260505165529 | 77 | 317 | 1.7 | 4.3 | 0.00 | 0.00 | 0.00 | 49 | 1017.0 |
| 20260505164527 | 77 | 326 | 1.7 | 5.2 | 0.00 | 0.00 | 0.00 | 50 | 1016.9 |
| 20260505163547 | 77 | 22 | 1.7 | 8.7 | 0.00 | 0.00 | 0.00 | 50 | 1016.7 |
| 20260505162548 | 77 | 318 | 0.9 | 8.7 | 0.00 | 0.00 | 0.00 | 48 | 1016.9 |
| 20260505161525 | 76 | 312 | 1.7 | 3.5 | 0.00 | 0.00 | 0.00 | 49 | 1016.9 |
| 20260505160604 | 76 | 293 | 1.7 | 4.3 | 0.00 | 0.00 | 0.00 | 50 | 1017.0 |
| 20260505152537 | 74 | 125 | 0.9 | 3.5 | 0.00 | 0.00 | 0.00 | 58 | 1017.3 |
| 20260505151539 | 72 | 91 | 0.9 | 2.6 | 0.00 | 0.00 | 0.00 | 63 | 1017.1 |
| 20260505150558 | 71 | 35 | 0.0 | 2.6 | 0.00 | 0.00 | 0.00 | 64 | 1017.5 |
| 20260505140613 | 66 | 59 | 0.0 | 1.7 | 0.00 | 0.00 | 0.00 | 71 | 1017.7 |
| 20260505124537 | 54 | 321 | 0.0 | 0.0 | 0.00 | 0.00 | 0.00 | 91 | 1016.9 |
| 20260505123537 | 53 | 321 | 0.0 | 0.0 | 0.00 | 0.00 | 0.00 | 92 | 1017.1 |
| 20260505122559 | 52 | 321 | 0.0 | 0.0 | 0.00 | 0.00 | 0.00 | 92 | 1017.0 |
| 20260505121555 | 51 | 324 | 0.0 | 0.0 | 0.00 | 0.00 | 0.00 | 95 | 1016.9 |
| 20260505120554 | 50 | 324 | 0.0 | 0.0 | 0.00 | 0.00 | 0.00 | 95 | 1016.8 |
| 20260505115532 | 49 | 324 | 0.0 | 0.0 | 0.00 | 0.00 | 0.00 | 95 | 1016.9 |
| 20260505114529 | 48 | 324 | 0.0 | 0.0 | 0.00 | 0.00 | 0.00 | 95 | 1016.8 |
| 20260505113550 | 48 | 324 | 0.0 | 0.0 | 0.00 | 0.00 | 0.00 | 95 | 1016.6 |
| 20260505112526 | 48 | 324 | 0.0 | 0.0 | 0.00 | 0.00 | 0.00 | 95 | 1016.3 |
| 20260505111528 | 47 | 324 | 0.0 | 0.0 | 0.00 | 0.00 | 0.00 | 95 | 1016.1 |
| 20260505110548 | 47 | 324 | 0.0 | 0.0 | 0.00 | 0.00 | 0.00 | 95 | 1015.9 |
| 20260505101537 | 47 | 324 | 0.0 | 0.0 | 0.00 | 0.00 | 0.00 | 94 | 1015.7 |
| 20260505100600 | 47 | 324 | 0.0 | 0.0 | 0.00 | 0.00 | 0.00 | 94 | 1015.8 |
| 20260505095533 | 47 | 324 | 0.0 | 0.0 | 0.00 | 0.00 | 0.00 | 94 | 1016.0 |
| 20260505094531 | 47 | 324 | 0.0 | 0.0 | 0.00 | 0.00 | 0.00 | 94 | 1016.1 |
| 20260505093535 | 47 | 324 | 0.0 | 0.0 | 0.00 | 0.00 | 0.00 | 93 | 1016.0 |
| 20260505092532 | 48 | 324 | 0.0 | 0.0 | 0.00 | 0.00 | 0.00 | 93 | 1015.8 |
| 20260505091530 | 48 | 324 | 0.0 | 0.0 | 0.00 | 0.00 | 0.00 | 93 | 1016.0 |
| 20260505090555 | 48 | 324 | 0.0 | 0.0 | 0.00 | 0.00 | 0.00 | 93 | 1016.1 |
| 20260505085548 | 48 | 324 | 0.0 | 0.0 | 0.00 | 0.00 | 0.00 | 93 | 1016.2 |
| 20260505084525 | 48 | 324 | 0.0 | 0.0 | 0.00 | 0.00 | 0.00 | 92 | 1016.2 |
| 20260505083524 | 48 | 324 | 0.0 | 0.0 | 0.00 | 0.00 | 0.00 | 92 | 1016.2 |
| 20260505082526 | 49 | 324 | 0.0 | 0.0 | 0.00 | 0.00 | 0.00 | 92 | 1016.2 |
| 20260505081545 | 49 | 324 | 0.0 | 0.0 | 0.00 | 0.00 | 0.00 | 92 | 1016.3 |
| 20260505080603 | 49 | 324 | 0.0 | 0.0 | 0.00 | 0.00 | 0.00 | 92 | 1016.2 |
| 20260505075541 | 49 | 324 | 0.0 | 0.0 | 0.00 | 0.00 | 0.00 | 92 | 1016.0 |
| 20260505074539 | 49 | 324 | 0.0 | 0.0 | 0.00 | 0.00 | 0.00 | 91 | 1015.9 |
| 20260505073559 | 50 | 324 | 0.0 | 0.0 | 0.00 | 0.00 | 0.00 | 91 | 1016.0 |
| 20260505072536 | 50 | 324 | 0.0 | 0.0 | 0.00 | 0.00 | 0.00 | 91 | 1016.1 |
| 20260505071557 | 50 | 324 | 0.0 | 0.0 | 0.00 | 0.00 | 0.00 | 91 | 1016.1 |
| 20260505070616 | 50 | 324 | 0.0 | 0.0 | 0.00 | 0.00 | 0.00 | 90 | 1016.1 |
| 20260505065527 | 50 | 324 | 0.0 | 0.0 | 0.00 | 0.00 | 0.00 | 90 | 1016.1 |
| 20260505064526 | 50 | 324 | 0.0 | 0.0 | 0.00 | 0.00 | 0.00 | 90 | 1016.1 |
| 20260505063529 | 51 | 324 | 0.0 | 0.0 | 0.00 | 0.00 | 0.00 | 89 | 1016.0 |
| 20260505062526 | 51 | 324 | 0.0 | 0.0 | 0.00 | 0.00 | 0.00 | 89 | 1016.1 |
| 20260505061524 | 51 | 324 | 0.0 | 0.0 | 0.00 | 0.00 | 0.00 | 89 | 1016.1 |
| 20260505060548 | 51 | 324 | 0.0 | 0.0 | 0.00 | 0.00 | 0.00 | 89 | 1016.1 |
| 20260505055522 | 51 | 324 | 0.0 | 0.0 | 0.00 | 0.00 | 0.00 | 88 | 1016.1 |
| 20260505054539 | 52 | 324 | 0.0 | 0.0 | 0.00 | 0.00 | 0.00 | 87 | 1016.3 |
| 20260505053523 | 52 | 324 | 0.0 | 0.0 | 0.00 | 0.00 | 0.00 | 86 | 1016.3 |
| 20260505052540 | 52 | 324 | 0.0 | 0.0 | 0.00 | 0.00 | 0.00 | 86 | 1016.2 |
| 20260505051538 | 53 | 324 | 0.0 | 0.0 | 0.00 | 0.00 | 0.00 | 85 | 1016.2 |
| 20260505050558 | 53 | 324 | 0.0 | 0.0 | 0.00 | 0.00 | 0.00 | 85 | 1016.3 |
| 20260505041531 | 55 | 324 | 0.0 | 0.0 | 0.00 | 0.00 | 0.00 | 83 | 1016.2 |
| 20260505040551 | 55 | 324 | 0.0 | 0.0 | 0.00 | 0.00 | 0.00 | 82 | 1016.2 |
| 20260505035529 | 55 | 324 | 0.0 | 0.0 | 0.00 | 0.00 | 0.00 | 80 | 1016.1 |
| 20260505034526 | 56 | 324 | 0.0 | 0.0 | 0.00 | 0.00 | 0.00 | 80 | 1016.3 |
| 20260505033525 | 56 | 324 | 0.0 | 0.0 | 0.00 | 0.00 | 0.00 | 79 | 1016.4 |
| 20260505032544 | 56 | 324 | 0.0 | 0.0 | 0.00 | 0.00 | 0.00 | 79 | 1016.4 |
| 20260505031525 | 57 | 324 | 0.0 | 0.0 | 0.00 | 0.00 | 0.00 | 78 | 1016.3 |
| 20260505030605 | 57 | 324 | 0.0 | 0.0 | 0.00 | 0.00 | 0.00 | 77 | 1016.4 |
| 20260505025538 | 58 | 324 | 0.0 | 0.0 | 0.00 | 0.00 | 0.00 | 76 | 1016.4 |
| 20260505024540 | 58 | 324 | 0.0 | 0.0 | 0.00 | 0.00 | 0.00 | 75 | 1016.4 |
| 20260505023600 | 59 | 324 | 0.0 | 0.0 | 0.00 | 0.00 | 0.00 | 75 | 1016.3 |
| 20260505022536 | 60 | 324 | 0.0 | 0.0 | 0.00 | 0.00 | 0.00 | 74 | 1016.1 |
| 20260505021534 | 60 | 324 | 0.0 | 0.0 | 0.00 | 0.00 | 0.00 | 70 | 1016.0 |
| 20260505020558 | 61 | 324 | 0.0 | 0.0 | 0.00 | 0.00 | 0.00 | 70 | 1015.9 |
| 20260505015530 | 62 | 324 | 0.0 | 0.0 | 0.00 | 0.00 | 0.00 | 67 | 1015.9 |
| 20260505014528 | 62 | 324 | 0.0 | 0.0 | 0.00 | 0.00 | 0.00 | 66 | 1015.7 |